Time;durP1;ratioP1;P1;durP2;ratioP2;P2;SDS_P1;SDS_P2;PMS_P1;PMS_P2;Temp;Humidity;BMP_temperature;BMP_pressure;BME280_temperature;BME280_humidity;BME280_pressure;Samples;Min_cycle;Max_cycle;Signal;HPM_P1;HPM_P2
2022/06/12 00:00:45;;;;;;;0.00;0.00;;;13.70;99.90;;;;;;5117268;27;20047;-81
2022/06/12 00:03:16;;;;;;;0.00;0.00;;;13.70;99.90;;;;;;5117031;27;20043;-81
2022/06/12 00:05:44;;;;;;;0.10;0.10;;;13.70;99.90;;;;;;5100090;27;20046;-81
2022/06/12 00:08:11;;;;;;;0.00;0.00;;;13.80;99.90;;;;;;5100012;27;20089;-81
2022/06/12 00:10:39;;;;;;;0.00;0.00;;;13.80;99.90;;;;;;5117056;27;20043;-81
2022/06/12 00:13:06;;;;;;;0.20;0.20;;;13.90;99.90;;;;;;5117220;27;20095;-81
2022/06/12 00:15:32;;;;;;;0.03;0.00;;;13.90;99.90;;;;;;5116465;27;20066;-81
2022/06/12 00:17:59;;;;;;;0.00;0.00;;;13.90;99.90;;;;;;5117097;27;20409;-81
2022/06/12 00:20:25;;;;;;;0.00;0.00;;;13.90;99.90;;;;;;5117160;27;20437;-81
2022/06/12 00:22:53;;;;;;;0.55;0.25;;;13.90;99.90;;;;;;5116650;28;20133;-81
2022/06/12 00:25:20;;;;;;;0.00;0.00;;;13.90;99.90;;;;;;5099527;27;20456;-81
2022/06/12 00:27:47;;;;;;;0.00;0.00;;;13.90;99.90;;;;;;5114823;27;20039;-81
2022/06/12 00:30:16;;;;;;;0.00;0.00;;;13.90;99.90;;;;;;5115379;27;20031;-81
2022/06/12 00:32:44;;;;;;;0.00;0.00;;;13.80;99.90;;;;;;5116403;27;20078;-81
2022/06/12 00:35:10;;;;;;;0.00;0.00;;;13.90;99.90;;;;;;5116993;27;20046;-81
2022/06/12 00:37:39;;;;;;;0.00;0.00;;;13.80;99.90;;;;;;5100624;28;20043;-81
2022/06/12 00:40:05;;;;;;;0.00;0.00;;;13.80;99.90;;;;;;5116647;27;20043;-81
2022/06/12 00:42:38;;;;;;;0.00;0.00;;;13.90;99.90;;;;;;5116763;27;20047;-81
2022/06/12 00:45:46;;;;;;;0.00;0.00;;;13.80;99.90;;;;;;5099705;28;20398;-81
2022/06/12 00:48:21;;;;;;;0.75;0.10;;;13.80;99.90;;;;;;5074494;28;20415;-81
2022/06/12 00:50:58;;;;;;;0.00;0.00;;;13.80;99.90;;;;;;5058510;28;20499;-81
2022/06/12 00:53:30;;;;;;;0.03;0.03;;;13.80;99.90;;;;;;5074991;28;20126;-81
2022/06/12 00:56:09;;;;;;;0.00;0.00;;;13.80;99.90;;;;;;5074862;28;20523;-81
2022/06/12 00:58:44;;;;;;;0.00;0.00;;;13.80;99.90;;;;;;5075086;28;20064;-81
2022/06/12 01:01:16;;;;;;;0.32;0.00;;;13.80;99.90;;;;;;5058413;28;20062;-81
2022/06/12 01:06:35;;;;;;;0.00;0.00;;;13.80;99.90;;;;;;5074739;28;20040;-81
2022/06/12 01:09:10;;;;;;;0.40;0.00;;;13.80;99.90;;;;;;5058196;28;20044;-81
2022/06/12 01:11:36;;;;;;;;;;;13.80;99.90;;;;;;5058499;28;20143;-81
2022/06/12 01:14:06;;;;;;;0.00;0.00;;;13.80;99.90;;;;;;5074557;28;19927;-81
2022/06/12 01:16:32;;;;;;;0.00;0.00;;;13.70;99.90;;;;;;5074566;28;20052;-81
2022/06/12 01:18:58;;;;;;;0.00;0.00;;;13.70;99.90;;;;;;5057923;28;20154;-81
2022/06/12 01:21:53;;;;;;;0.00;0.00;;;13.80;99.90;;;;;;5074584;28;20076;-81
2022/06/12 01:24:51;;;;;;;0.08;0.08;;;13.80;99.90;;;;;;5068147;28;20059;-81
2022/06/12 01:27:57;;;;;;;0.00;0.00;;;13.80;99.90;;;;;;5057578;28;20044;-81
2022/06/12 01:31:10;;;;;;;0.00;0.00;;;13.80;99.90;;;;;;5057044;28;20146;-81
2022/06/12 01:33:54;;;;;;;0.05;0.05;;;13.80;99.90;;;;;;5019991;28;20045;-81
2022/06/12 01:36:38;;;;;;;0.00;0.00;;;13.80;99.90;;;;;;5038449;28;20073;-81
2022/06/12 01:39:31;;;;;;;2.63;0.65;;;13.80;99.90;;;;;;5038253;28;20078;-80
2022/06/12 01:42:25;;;;;;;0.00;0.00;;;13.80;99.90;;;;;;4963054;28;20062;-81
2022/06/12 01:44:50;;;;;;;0.00;0.00;;;13.80;99.90;;;;;;4979446;28;20057;-81
2022/06/12 01:47:43;;;;;;;0.08;0.08;;;13.80;99.90;;;;;;4978508;28;20471;-81
2022/06/12 01:50:18;;;;;;;0.00;0.00;;;13.80;99.90;;;;;;4962584;28;20145;-81
2022/06/12 01:53:17;;;;;;;0.10;0.10;;;13.70;99.90;;;;;;4962789;28;20054;-81
2022/06/12 01:55:46;;;;;;;0.00;0.00;;;13.70;99.90;;;;;;4979031;28;20050;-81
2022/06/12 01:58:32;;;;;;;0.30;0.30;;;13.70;99.90;;;;;;4978988;28;20057;-81
2022/06/12 02:01:17;;;;;;;0.00;0.00;;;13.70;99.90;;;;;;4978902;28;20056;-81
2022/06/12 02:03:55;;;;;;;1.10;0.03;;;13.60;99.90;;;;;;4994871;28;20132;-81
2022/06/12 02:06:28;;;;;;;0.00;0.00;;;13.60;99.90;;;;;;5001898;28;20489;-81
2022/06/12 02:09:06;;;;;;;0.00;0.00;;;13.60;99.90;;;;;;5017695;28;20041;-81
2022/06/12 02:14:34;;;;;;;0.75;0.40;;;13.60;99.90;;;;;;5017641;28;20054;-81
2022/06/12 02:17:02;;;;;;;0.00;0.00;;;13.60;99.90;;;;;;5018599;28;20048;-81
2022/06/12 02:19:33;;;;;;;0.00;0.00;;;13.60;99.90;;;;;;5090890;27;20055;-81
2022/06/12 02:22:23;;;;;;;0.00;0.00;;;13.50;99.90;;;;;;5102212;27;20043;-81
2022/06/12 02:25:01;;;;;;;0.00;0.00;;;13.50;99.90;;;;;;5101906;27;20054;-81
2022/06/12 02:27:43;;;;;;;0.00;0.00;;;13.50;99.90;;;;;;5102315;27;20050;-81
2022/06/12 02:30:18;;;;;;;0.00;0.00;;;13.50;99.90;;;;;;5119264;27;20051;-81
2022/06/12 02:32:49;;;;;;;0.00;0.00;;;13.50;99.90;;;;;;5102110;27;20049;-81
2022/06/12 02:35:27;;;;;;;0.52;0.30;;;13.40;99.90;;;;;;5101537;27;20055;-81
2022/06/12 02:37:59;;;;;;;0.85;0.43;;;13.40;99.90;;;;;;5119341;27;20043;-81
2022/06/12 02:40:32;;;;;;;0.00;0.00;;;13.40;99.90;;;;;;5118557;27;20047;-81
2022/06/12 02:43:01;;;;;;;0.00;0.00;;;13.40;99.90;;;;;;5101568;27;20069;-81
2022/06/12 02:45:34;;;;;;;0.05;0.05;;;13.30;99.90;;;;;;5118712;27;20078;-81
2022/06/12 02:48:06;;;;;;;0.00;0.00;;;13.30;99.90;;;;;;5118135;27;20418;-81
2022/06/12 02:50:44;;;;;;;0.00;0.00;;;13.30;99.90;;;;;;5101683;27;20189;-81
2022/06/12 02:53:41;;;;;;;0.00;0.00;;;13.30;99.90;;;;;;5119153;27;20051;-81
2022/06/12 02:56:23;;;;;;;0.00;0.00;;;13.30;99.90;;;;;;5118784;27;20039;-81
2022/06/12 02:59:01;;;;;;;0.00;0.00;;;13.30;99.90;;;;;;5101319;27;20047;-81
2022/06/12 03:01:50;;;;;;;0.43;0.43;;;13.30;99.90;;;;;;5118341;27;20039;-81
2022/06/12 03:04:40;;;;;;;0.00;0.00;;;13.30;99.90;;;;;;5101549;27;20083;-81
2022/06/12 03:07:06;;;;;;;0.00;0.00;;;13.30;99.90;;;;;;5101529;27;20039;-81
2022/06/12 03:09:32;;;;;;;0.00;0.00;;;13.30;99.90;;;;;;5100911;27;20043;-81
2022/06/12 03:11:58;;;;;;;0.08;0.08;;;13.20;99.90;;;;;;5117859;27;20035;-81
2022/06/12 03:14:24;;;;;;;0.00;0.00;;;13.20;99.90;;;;;;5118281;27;20058;-81
2022/06/12 03:16:52;;;;;;;0.00;0.00;;;13.20;99.90;;;;;;5118210;27;20054;-80
2022/06/12 03:19:23;;;;;;;0.00;0.00;;;13.20;99.90;;;;;;5118209;27;20449;-80
2022/06/12 03:22:01;;;;;;;0.00;0.00;;;13.20;99.90;;;;;;5118832;27;20039;-81
2022/06/12 03:25:01;;;;;;;0.30;0.15;;;13.20;99.90;;;;;;5118471;27;20039;-81
2022/06/12 03:27:39;;;;;;;0.00;0.00;;;13.20;99.90;;;;;;5117393;27;20051;-81
2022/06/12 03:30:11;;;;;;;0.00;0.00;;;13.20;99.90;;;;;;5101686;27;20072;-81
2022/06/12 03:32:54;;;;;;;0.00;0.00;;;13.20;99.90;;;;;;5118137;27;20043;-81
2022/06/12 03:35:40;;;;;;;2.28;0.70;;;13.10;99.90;;;;;;5100718;27;20055;-81
2022/06/12 03:38:25;;;;;;;0.00;0.00;;;13.20;99.90;;;;;;5101679;27;20145;-81
2022/06/12 03:40:57;;;;;;;0.28;0.28;;;13.20;99.90;;;;;;5118005;27;20055;-80
2022/06/12 03:43:38;;;;;;;0.00;0.00;;;13.20;99.90;;;;;;5117633;27;20603;-80
2022/06/12 03:46:08;;;;;;;0.20;0.13;;;13.20;99.90;;;;;;5117134;27;20092;-81
2022/06/12 03:48:57;;;;;;;0.00;0.00;;;13.20;99.90;;;;;;5118339;27;20044;-80
2022/06/12 03:51:41;;;;;;;0.00;0.00;;;13.30;99.90;;;;;;5100874;27;20057;-80
2022/06/12 03:54:18;;;;;;;0.10;0.00;;;13.30;99.90;;;;;;5100820;27;20068;-80
2022/06/12 03:59:48;;;;;;;0.00;0.00;;;13.30;99.90;;;;;;5116966;27;20050;-80
2022/06/12 04:02:19;;;;;;;0.20;0.20;;;13.20;99.90;;;;;;5117381;27;20126;-80
2022/06/12 04:04:47;;;;;;;0.10;0.10;;;13.20;99.90;;;;;;5117522;27;20050;-81
2022/06/12 04:07:15;;;;;;;0.00;0.00;;;13.20;99.90;;;;;;5117806;27;20050;-81
2022/06/12 04:09:45;;;;;;;0.22;0.20;;;13.30;99.90;;;;;;5100290;27;20055;-80
2022/06/12 04:12:24;;;;;;;0.00;0.00;;;13.30;99.90;;;;;;5099736;27;20401;-80
2022/06/12 04:15:17;;;;;;;0.17;0.15;;;13.30;99.90;;;;;;5100352;27;20046;-80
2022/06/12 04:17:43;;;;;;;0.00;0.00;;;13.30;99.90;;;;;;5100253;27;20043;-80
2022/06/12 04:20:21;;;;;;;0.00;0.00;;;13.30;99.90;;;;;;5098618;27;20055;-80
2022/06/12 04:23:03;;;;;;;1.75;0.47;;;13.30;99.90;;;;;;5117273;27;20047;-80
2022/06/12 04:25:34;;;;;;;3.47;0.63;;;13.30;99.90;;;;;;5117298;27;20195;-80
2022/06/12 04:28:00;;;;;;;0.52;0.20;;;13.40;99.90;;;;;;5099621;27;20126;-80
2022/06/12 04:30:44;;;;;;;0.00;0.00;;;13.30;99.90;;;;;;5099877;27;20047;-80
2022/06/12 04:33:20;;;;;;;0.00;0.00;;;13.30;99.90;;;;;;5117019;27;20043;-80
2022/06/12 04:35:59;;;;;;;0.15;0.15;;;13.40;99.90;;;;;;5099956;27;20058;-80
2022/06/12 04:38:27;;;;;;;0.00;0.00;;;13.40;99.90;;;;;;5116697;28;20043;-80
2022/06/12 04:40:56;;;;;;;0.20;0.10;;;13.40;99.90;;;;;;5099097;28;20055;-80
2022/06/12 04:43:22;;;;;;;0.03;0.03;;;13.50;99.90;;;;;;5116163;27;20051;-81
2022/06/12 04:45:48;;;;;;;0.00;0.00;;;13.50;99.90;;;;;;5099005;28;20059;-80
2022/06/12 04:48:39;;;;;;;0.00;0.00;;;13.50;99.90;;;;;;5116301;28;20047;-80
2022/06/12 04:51:07;;;;;;;0.10;0.00;;;13.60;99.90;;;;;;5055236;28;20056;-80
2022/06/12 04:53:34;;;;;;;0.00;0.00;;;13.60;99.90;;;;;;5038749;28;20056;-80
2022/06/12 04:56:00;;;;;;;0.00;0.00;;;13.60;99.90;;;;;;5038104;28;20099;-80
2022/06/12 04:58:26;;;;;;;0.00;0.00;;;13.70;99.90;;;;;;5054361;28;20045;-80
2022/06/12 05:00:52;;;;;;;0.10;0.10;;;13.70;99.90;;;;;;5038062;28;20102;-80
2022/06/12 05:03:18;;;;;;;0.00;0.00;;;13.70;99.90;;;;;;5037449;28;20096;-80
2022/06/12 05:05:44;;;;;;;0.20;0.10;;;13.80;99.90;;;;;;5054698;28;20500;-80
2022/06/12 05:08:10;;;;;;;0.00;0.00;;;13.80;99.90;;;;;;5055505;28;20078;-80
2022/06/12 05:10:36;;;;;;;0.00;0.00;;;13.80;99.90;;;;;;5058936;28;20049;-80
2022/06/12 05:13:02;;;;;;;0.00;0.00;;;13.90;99.90;;;;;;5042393;28;20041;-80
2022/06/12 05:15:28;;;;;;;0.00;0.00;;;13.90;99.90;;;;;;5058828;28;20103;-79
2022/06/12 05:17:54;;;;;;;1.15;0.55;;;14.00;99.90;;;;;;5042172;28;20060;-80
2022/06/12 05:20:26;;;;;;;0.20;0.00;;;14.00;99.90;;;;;;5058753;28;20048;-80
2022/06/12 05:22:53;;;;;;;0.00;0.00;;;14.10;99.90;;;;;;5058391;28;20074;-80
2022/06/12 05:25:19;;;;;;;0.00;0.00;;;14.10;99.90;;;;;;5041822;28;20040;-80
2022/06/12 05:27:47;;;;;;;0.20;0.20;;;14.10;99.90;;;;;;5065879;27;20051;-81
2022/06/12 05:30:16;;;;;;;1.02;0.38;;;14.20;99.90;;;;;;5103293;27;20129;-81
2022/06/12 05:32:42;;;;;;;0.00;0.00;;;14.20;99.90;;;;;;5120530;27;20126;-80
2022/06/12 05:35:10;;;;;;;0.00;0.00;;;14.30;99.90;;;;;;5120723;27;20131;-80
2022/06/12 05:37:36;;;;;;;0.00;0.00;;;14.40;99.90;;;;;;5120484;27;20054;-80
2022/06/12 05:40:03;;;;;;;0.00;0.00;;;14.50;99.90;;;;;;5102255;27;20410;-81
2022/06/12 05:42:29;;;;;;;0.20;0.20;;;14.50;99.90;;;;;;5120225;27;20104;-80
2022/06/12 05:44:55;;;;;;;0.10;0.10;;;14.70;99.90;;;;;;5119931;27;20043;-80
2022/06/12 05:47:20;;;;;;;0.00;0.00;;;15.00;99.90;;;;;;5119572;27;20451;-80
2022/06/12 05:49:46;;;;;;;0.00;0.00;;;15.40;99.90;;;;;;5119670;27;20032;-81
2022/06/12 05:52:12;;;;;;;0.08;0.08;;;15.60;99.90;;;;;;5102547;27;20063;-80
2022/06/12 05:54:38;;;;;;;0.00;0.00;;;15.60;99.90;;;;;;5102670;27;20103;-80
2022/06/12 05:57:04;;;;;;;0.45;0.45;;;15.60;99.90;;;;;;5102722;27;20039;-82
2022/06/12 05:59:30;;;;;;;0.00;0.00;;;15.50;99.90;;;;;;5119726;27;20084;-81
2022/06/12 06:01:55;;;;;;;0.00;0.00;;;15.50;99.90;;;;;;5102172;27;20043;-80
2022/06/12 06:04:21;;;;;;;0.00;0.00;;;15.50;99.90;;;;;;5102909;27;20089;-80
2022/06/12 06:06:51;;;;;;;0.00;0.00;;;15.50;99.90;;;;;;5102037;27;20148;-80
2022/06/12 06:09:17;;;;;;;0.00;0.00;;;15.40;99.90;;;;;;5120004;27;20058;-80
2022/06/12 06:11:44;;;;;;;1.20;0.55;;;15.40;99.90;;;;;;5102613;27;20083;-80
2022/06/12 06:14:09;;;;;;;0.20;0.10;;;15.50;99.90;;;;;;5119435;27;20062;-80
2022/06/12 06:16:37;;;;;;;0.30;0.30;;;15.60;99.90;;;;;;5102597;27;20036;-80
2022/06/12 06:19:03;;;;;;;0.00;0.00;;;15.80;99.90;;;;;;5102009;27;20047;-80
2022/06/12 06:21:30;;;;;;;4.95;0.75;;;15.90;99.90;;;;;;5119287;27;20478;-80
2022/06/12 06:23:56;;;;;;;1.30;0.52;;;16.00;99.90;;;;;;5102196;27;20091;-80
2022/06/12 06:26:24;;;;;;;0.00;0.00;;;16.00;99.90;;;;;;5102186;27;20134;-80
2022/06/12 06:28:51;;;;;;;0.10;0.00;;;16.00;99.90;;;;;;5101664;27;20505;-80
2022/06/12 06:31:18;;;;;;;0.00;0.00;;;16.00;99.90;;;;;;5118959;27;20049;-80
2022/06/12 06:33:46;;;;;;;6.47;0.03;;;16.10;99.90;;;;;;5119204;27;20039;-79
2022/06/12 06:36:15;;;;;;;0.00;0.00;;;16.10;99.90;;;;;;5101403;27;20127;-80
2022/06/12 06:38:42;;;;;;;0.10;0.00;;;16.20;99.90;;;;;;5101963;27;20051;-80
2022/06/12 06:41:08;;;;;;;0.00;0.00;;;16.20;99.90;;;;;;5101590;27;20433;-80
2022/06/12 06:46:22;;;;;;;0.00;0.00;;;16.30;99.90;;;;;;5118023;27;20062;-80
2022/06/12 06:48:48;;;;;;;0.00;0.00;;;16.40;99.90;;;;;;5101847;27;20050;-81
2022/06/12 06:51:14;;;;;;;0.00;0.00;;;16.50;99.90;;;;;;5119220;27;20039;-80
2022/06/12 06:53:40;;;;;;;0.00;0.00;;;16.60;99.90;;;;;;5101298;27;20062;-80
2022/06/12 06:56:07;;;;;;;3.50;0.85;;;16.70;99.90;;;;;;5118972;27;20039;-80
2022/06/12 06:58:35;;;;;;;0.00;0.00;;;16.80;99.90;;;;;;5101131;27;20069;-80
2022/06/12 07:01:04;;;;;;;4.00;0.73;;;17.00;99.90;;;;;;5118711;27;20089;-80
2022/06/12 07:03:30;;;;;;;1.38;0.35;;;17.00;99.90;;;;;;5101488;27;20055;-79
2022/06/12 07:05:57;;;;;;;6.53;0.77;;;17.10;99.90;;;;;;5118437;27;20039;-79
2022/06/12 07:08:26;;;;;;;0.63;0.45;;;17.10;99.90;;;;;;5100857;27;20047;-80
2022/06/12 07:10:52;;;;;;;1.75;0.70;;;17.20;99.90;;;;;;5101951;27;20407;-79
2022/06/12 07:13:18;;;;;;;0.17;0.17;;;17.20;99.90;;;;;;5101310;27;20467;-79
2022/06/12 07:15:47;;;;;;;3.92;1.08;;;17.30;99.90;;;;;;5101273;27;20072;-80
2022/06/12 07:18:14;;;;;;;0.03;0.03;;;17.30;99.90;;;;;;5118134;27;20156;-80
2022/06/12 07:20:46;;;;;;;0.17;0.17;;;17.30;99.90;;;;;;5118290;27;20072;-80
2022/06/12 07:23:14;;;;;;;1.67;0.45;;;17.40;99.90;;;;;;5118517;27;20047;-80
2022/06/12 07:25:43;;;;;;;0.10;0.10;;;17.60;99.90;;;;;;5100861;27;20139;-80
2022/06/12 07:28:10;;;;;;;1.08;0.30;;;17.60;99.90;;;;;;5118026;27;20043;-81
2022/06/12 07:30:37;;;;;;;0.35;0.10;;;17.60;99.90;;;;;;5099607;28;20415;-80
2022/06/12 07:33:08;;;;;;;0.55;0.45;;;17.80;99.90;;;;;;5117197;27;20043;-81
2022/06/12 07:35:36;;;;;;;0.00;0.00;;;18.00;99.90;;;;;;5100842;27;20513;-81
2022/06/12 07:38:02;;;;;;;0.57;0.35;;;18.20;99.90;;;;;;5102591;27;20043;-80
2022/06/12 07:40:35;;;;;;;0.00;0.00;;;18.30;99.90;;;;;;5115923;27;20080;-79
2022/06/12 07:43:01;;;;;;;1.00;0.85;;;18.40;99.90;;;;;;5116807;27;20047;-79
2022/06/12 07:45:27;;;;;;;0.90;0.43;;;18.50;99.90;;;;;;5116627;27;20497;-81
2022/06/12 07:47:53;;;;;;;2.72;0.40;;;18.50;99.90;;;;;;5099306;28;20060;-81
2022/06/12 07:50:19;;;;;;;0.10;0.10;;;18.50;99.90;;;;;;5096573;28;20054;-81
2022/06/12 07:52:48;;;;;;;0.80;0.40;;;18.50;99.90;;;;;;5080509;28;20047;-81
2022/06/12 07:55:18;;;;;;;0.00;0.00;;;18.70;99.90;;;;;;5080406;28;20039;-81
2022/06/12 07:57:49;;;;;;;1.77;0.38;;;18.70;99.90;;;;;;5080337;28;20043;-81
2022/06/12 08:00:16;;;;;;;2.28;0.47;;;18.80;99.90;;;;;;5080365;28;20449;-81
2022/06/12 08:02:43;;;;;;;0.20;0.20;;;18.90;99.90;;;;;;5080073;28;20055;-81
2022/06/12 08:05:10;;;;;;;0.60;0.30;;;18.90;99.90;;;;;;5097471;28;20044;-81
2022/06/12 08:07:35;;;;;;;0.10;0.00;;;19.00;99.90;;;;;;5096653;28;20368;-81
2022/06/12 08:10:03;;;;;;;1.35;0.60;;;19.20;99.90;;;;;;5096993;28;20081;-81
2022/06/12 08:12:32;;;;;;;0.00;0.00;;;19.30;99.90;;;;;;5079978;28;20047;-81
2022/06/12 08:14:58;;;;;;;0.00;0.00;;;19.30;99.90;;;;;;5096731;28;20372;-81
2022/06/12 08:17:23;;;;;;;0.17;0.10;;;19.30;99.90;;;;;;5096121;28;20046;-80
2022/06/12 08:22:36;;;;;;;0.85;0.32;;;19.30;99.90;;;;;;5096780;28;20047;-81
2022/06/12 08:25:02;;;;;;;0.00;0.00;;;19.30;99.90;;;;;;5096608;28;20042;-81
2022/06/12 08:27:31;;;;;;;0.00;0.00;;;19.40;99.90;;;;;;5096334;28;20039;-81
2022/06/12 08:29:56;;;;;;;5.70;1.10;;;19.50;99.90;;;;;;5096472;28;20071;-81
2022/06/12 08:32:25;;;;;;;6.03;1.55;;;19.60;99.90;;;;;;5114459;28;20051;-81
2022/06/12 08:35:05;;;;;;;0.25;0.25;;;19.60;99.90;;;;;;5096600;28;20064;-81
2022/06/12 08:37:36;;;;;;;0.00;0.00;;;19.60;99.90;;;;;;5079465;28;20047;-81
2022/06/12 08:40:04;;;;;;;0.00;0.00;;;19.70;99.90;;;;;;5079632;28;20097;-81
2022/06/12 08:42:37;;;;;;;3.17;0.55;;;19.90;99.90;;;;;;5096765;28;20054;-81
2022/06/12 08:45:12;;;;;;;0.10;0.10;;;20.00;99.90;;;;;;5080083;28;20055;-81
2022/06/12 08:48:02;;;;;;;0.10;0.00;;;20.10;99.90;;;;;;5078686;28;20711;-81
2022/06/12 08:50:37;;;;;;;0.03;0.03;;;20.20;99.90;;;;;;5096309;28;20048;-81
2022/06/12 08:53:23;;;;;;;0.00;0.00;;;20.30;99.90;;;;;;5080211;28;20047;-81
2022/06/12 08:55:55;;;;;;;0.08;0.00;;;20.50;99.90;;;;;;5095683;28;20070;-81
2022/06/12 08:59:03;;;;;;;0.00;0.00;;;20.50;99.90;;;;;;5079364;28;20043;-81
2022/06/12 09:01:29;;;;;;;0.00;0.00;;;20.50;99.90;;;;;;5079933;28;20058;-81
2022/06/12 09:03:56;;;;;;;0.00;0.00;;;20.60;99.90;;;;;;5079354;28;20055;-81
2022/06/12 09:06:57;;;;;;;0.40;0.40;;;20.70;99.90;;;;;;5096193;28;20122;-81
2022/06/12 09:09:25;;;;;;;0.80;0.47;;;20.80;99.90;;;;;;5051149;28;20088;-81
2022/06/12 09:12:20;;;;;;;0.60;0.60;;;20.90;99.90;;;;;;5034583;28;20053;-81
2022/06/12 09:14:55;;;;;;;;;;;20.80;99.90;;;;;;4999343;28;20053;-81
2022/06/12 09:17:29;;;;;;;0.20;0.20;;;20.90;99.90;;;;;;5030696;28;20004;-81
2022/06/12 09:20:29;;;;;;;0.38;0.38;;;21.00;99.90;;;;;;5014547;28;20541;-81
2022/06/12 09:23:30;;;;;;;0.30;0.17;;;20.90;99.90;;;;;;4998508;28;20516;-81
2022/06/12 09:26:17;;;;;;;0.00;0.00;;;21.00;99.90;;;;;;4995316;28;20058;-81
2022/06/12 09:29:14;;;;;;;0.40;0.22;;;21.00;99.90;;;;;;4995069;28;20057;-81
2022/06/12 09:32:05;;;;;;;0.00;0.00;;;21.20;99.90;;;;;;4995580;28;20060;-81
2022/06/12 09:34:46;;;;;;;0.20;0.00;;;21.50;99.90;;;;;;4994678;28;20054;-81
2022/06/12 09:40:03;;;;;;;0.00;0.00;;;21.80;99.90;;;;;;4995266;28;20046;-81
2022/06/12 09:43:05;;;;;;;0.57;0.15;;;22.00;99.90;;;;;;4995835;28;20086;-81
2022/06/12 09:45:43;;;;;;;5.18;0.70;;;21.90;99.90;;;;;;4958620;28;20054;-81
2022/06/12 09:48:14;;;;;;;0.35;0.35;;;21.90;99.90;;;;;;4936868;29;20149;-81
2022/06/12 09:50:52;;;;;;;0.00;0.00;;;22.00;99.90;;;;;;4923884;28;20063;-81
2022/06/12 09:53:23;;;;;;;0.00;0.00;;;22.20;99.90;;;;;;4992298;28;20066;-81
2022/06/12 09:55:55;;;;;;;0.00;0.00;;;22.10;99.40;;;;;;4979293;28;20050;-81
2022/06/12 09:58:35;;;;;;;0.08;0.08;;;22.10;99.00;;;;;;4963200;28;20054;-81
2022/06/12 10:01:11;;;;;;;0.05;0.00;;;22.20;99.90;;;;;;5000061;28;20140;-81
2022/06/12 10:03:46;;;;;;;0.00;0.00;;;22.20;98.60;;;;;;5018290;28;20509;-81
2022/06/12 10:06:42;;;;;;;0.00;0.00;;;22.40;99.30;;;;;;5018098;28;20056;-81
2022/06/12 10:09:22;;;;;;;0.63;0.10;;;22.40;97.00;;;;;;5014846;28;20425;-81
2022/06/12 10:11:54;;;;;;;1.50;0.95;;;22.20;96.30;;;;;;5001718;28;20052;-81
2022/06/12 10:14:36;;;;;;;0.05;0.00;;;22.10;97.30;;;;;;5018461;28;20498;-81
2022/06/12 10:17:17;;;;;;;0.63;0.32;;;21.90;97.20;;;;;;5017749;28;20057;-80
2022/06/12 10:19:59;;;;;;;0.10;0.03;;;21.90;97.90;;;;;;5001802;28;20095;-81
2022/06/12 10:22:43;;;;;;;0.00;0.00;;;22.20;98.30;;;;;;5052505;28;20044;-81
2022/06/12 10:25:21;;;;;;;0.00;0.00;;;22.50;97.70;;;;;;5099537;28;20055;-81
2022/06/12 10:27:52;;;;;;;0.00;0.00;;;22.80;96.40;;;;;;5099041;28;20376;-81
2022/06/12 10:30:42;;;;;;;0.77;0.43;;;22.90;96.40;;;;;;5098856;28;20055;-81
2022/06/12 10:33:23;;;;;;;0.00;0.00;;;23.10;97.60;;;;;;5082209;28;20047;-82
2022/06/12 10:35:55;;;;;;;0.00;0.00;;;23.50;95.20;;;;;;5081706;28;20506;-81
2022/06/12 10:38:23;;;;;;;0.00;0.00;;;23.50;94.90;;;;;;5081158;28;20039;-81
2022/06/12 10:41:23;;;;;;;0.25;0.08;;;23.60;94.40;;;;;;5097943;28;20451;-81
2022/06/12 10:43:51;;;;;;;0.00;0.00;;;23.50;93.70;;;;;;5081752;28;20047;-81
2022/06/12 10:46:22;;;;;;;1.50;0.22;;;23.40;95.30;;;;;;5081163;28;20154;-81
2022/06/12 10:49:19;;;;;;;0.85;0.52;;;23.60;94.40;;;;;;5098357;28;20087;-81
2022/06/12 10:51:46;;;;;;;0.10;0.00;;;23.80;94.10;;;;;;5079942;28;20052;-81
2022/06/12 10:54:19;;;;;;;0.00;0.00;;;23.90;90.50;;;;;;5098024;28;20040;-81
2022/06/12 10:56:53;;;;;;;0.00;0.00;;;24.10;91.40;;;;;;5081607;28;20551;-81
2022/06/12 10:59:50;;;;;;;0.08;0.00;;;24.30;92.90;;;;;;5098142;28;20048;-81
2022/06/12 11:02:31;;;;;;;0.00;0.00;;;24.30;93.40;;;;;;5098419;28;20043;-81
2022/06/12 11:05:06;;;;;;;0.00;0.00;;;24.00;92.30;;;;;;5081478;28;20054;-81
2022/06/12 11:07:40;;;;;;;0.00;0.00;;;23.80;93.20;;;;;;5081510;28;20131;-82
2022/06/12 11:10:43;;;;;;;0.00;0.00;;;23.60;93.70;;;;;;5100138;27;20161;-92
2022/06/12 11:13:19;;;;;;;0.00;0.00;;;23.30;93.20;;;;;;5100292;27;20059;-82
2022/06/12 11:15:58;;;;;;;0.73;0.20;;;23.00;93.10;;;;;;5099919;27;20058;-81
2022/06/12 11:18:30;;;;;;;0.15;0.10;;;23.10;94.10;;;;;;5118405;27;20096;-81
2022/06/12 11:21:17;;;;;;;0.00;0.00;;;23.30;93.40;;;;;;5118270;27;20043;-81
2022/06/12 11:23:46;;;;;;;0.00;0.00;;;23.40;93.30;;;;;;5100363;27;20493;-81
2022/06/12 11:26:36;;;;;;;0.00;0.00;;;23.20;91.20;;;;;;5101185;27;20043;-81
2022/06/12 11:29:07;;;;;;;0.00;0.00;;;23.20;92.10;;;;;;5118833;27;20074;-81
2022/06/12 11:32:00;;;;;;;0.08;0.08;;;23.00;91.20;;;;;;5101113;27;20043;-81
2022/06/12 11:35:07;;;;;;;0.30;0.20;;;23.00;91.90;;;;;;5101258;27;20039;-82
2022/06/12 11:37:51;;;;;;;0.00;0.00;;;23.10;91.00;;;;;;5019630;28;20532;-81
2022/06/12 11:40:41;;;;;;;0.00;0.00;;;23.30;91.20;;;;;;5036395;28;20086;-81
2022/06/12 11:43:28;;;;;;;0.22;0.15;;;23.50;91.10;;;;;;5035829;28;20557;-81
2022/06/12 11:46:18;;;;;;;0.77;0.30;;;23.60;90.20;;;;;;5035776;28;20052;-81
2022/06/12 11:49:13;;;;;;;0.00;0.00;;;23.50;88.90;;;;;;5019716;28;20110;-81
2022/06/12 11:52:12;;;;;;;1.27;0.47;;;23.40;86.50;;;;;;5019447;28;20435;-81
2022/06/12 11:54:56;;;;;;;0.00;0.00;;;23.50;89.00;;;;;;5036489;28;20057;-81
2022/06/12 11:57:25;;;;;;;0.00;0.00;;;23.50;85.20;;;;;;5035992;28;20476;-80
2022/06/12 12:00:03;;;;;;;0.00;0.00;;;23.50;87.30;;;;;;5035706;28;20079;-82
2022/06/12 12:02:55;;;;;;;0.00;0.00;;;23.70;84.00;;;;;;5036446;28;20172;-81
2022/06/12 12:05:42;;;;;;;0.00;0.00;;;23.70;81.80;;;;;;5036057;28;20044;-79
2022/06/12 12:08:23;;;;;;;0.00;0.00;;;23.70;83.10;;;;;;5019113;28;20111;-81
2022/06/12 12:10:54;;;;;;;0.00;0.00;;;23.70;82.80;;;;;;5019351;28;20420;-83
2022/06/12 12:13:42;;;;;;;0.00;0.00;;;23.80;84.40;;;;;;5082864;27;20055;-82
2022/06/12 12:16:26;;;;;;;0.00;0.00;;;23.90;85.20;;;;;;5117502;27;20058;-82
2022/06/12 12:19:19;;;;;;;0.05;0.00;;;24.10;85.40;;;;;;5099957;27;20117;-82
2022/06/12 12:21:53;;;;;;;0.05;0.05;;;24.20;83.10;;;;;;5117035;27;20463;-82
2022/06/12 12:24:25;;;;;;;0.00;0.00;;;24.20;81.90;;;;;;5100182;27;20046;-81
2022/06/12 12:26:54;;;;;;;0.08;0.00;;;24.30;79.20;;;;;;5099594;27;20505;-81
2022/06/12 12:29:31;;;;;;;1.00;0.30;;;24.40;82.00;;;;;;5117067;27;20428;-81
2022/06/12 12:31:58;;;;;;;0.00;0.00;;;24.40;81.60;;;;;;5099552;27;20494;-81
2022/06/12 12:34:27;;;;;;;0.10;0.00;;;24.50;80.90;;;;;;5099955;27;20039;-81
2022/06/12 12:42:39;;;;;;;0.00;0.00;;;24.20;79.90;;;;;;5117028;27;20109;-79
2022/06/12 12:45:28;;;;;;;0.00;0.00;;;24.20;78.00;;;;;;5117279;27;20047;-79
2022/06/12 12:48:09;;;;;;;0.00;0.00;;;24.20;79.00;;;;;;5116226;28;20067;-81
2022/06/12 12:50:53;;;;;;;0.15;0.15;;;24.20;78.10;;;;;;5100083;28;20444;-81
2022/06/12 12:53:29;;;;;;;3.13;1.35;;;24.30;76.60;;;;;;5099742;28;20492;-81
2022/06/12 12:56:10;;;;;;;0.00;0.00;;;24.30;74.70;;;;;;5116522;28;20134;-81
2022/06/12 12:58:58;;;;;;;0.88;0.20;;;24.40;75.50;;;;;;5099885;28;20031;-81
2022/06/12 13:01:27;;;;;;;0.00;0.00;;;24.40;76.00;;;;;;5117039;28;20424;-81
2022/06/12 13:03:57;;;;;;;0.20;0.20;;;24.20;73.90;;;;;;5116999;28;20049;-81
2022/06/12 13:06:38;;;;;;;0.47;0.30;;;24.30;75.40;;;;;;5098896;28;20055;-81
2022/06/12 13:09:29;;;;;;;0.00;0.00;;;24.10;74.10;;;;;;5117184;28;20046;-81
2022/06/12 13:12:28;;;;;;;0.10;0.10;;;24.20;76.30;;;;;;5116865;28;20130;-81
2022/06/12 13:15:03;;;;;;;0.00;0.00;;;24.30;75.60;;;;;;5116351;28;20043;-82
2022/06/12 13:17:38;;;;;;;0.00;0.00;;;24.20;74.40;;;;;;5108172;28;20097;-82
2022/06/12 13:20:20;;;;;;;0.00;0.00;;;24.30;74.00;;;;;;5097199;28;20057;-82
2022/06/12 13:23:30;;;;;;;0.10;0.10;;;24.30;74.20;;;;;;5116547;28;20375;-82
2022/06/12 13:26:00;;;;;;;0.00;0.00;;;24.40;73.10;;;;;;5074813;28;20087;-81
2022/06/12 13:28:33;;;;;;;0.20;0.20;;;24.40;72.70;;;;;;5074273;28;20162;-82
2022/06/12 13:31:01;;;;;;;0.80;0.38;;;24.40;74.10;;;;;;5061774;28;20143;-82
2022/06/12 13:33:30;;;;;;;0.00;0.00;;;24.30;73.80;;;;;;5078857;28;20453;-82
2022/06/12 13:36:01;;;;;;;0.00;0.00;;;24.30;73.00;;;;;;5061367;28;20510;-80
2022/06/12 13:38:28;;;;;;;0.20;0.20;;;24.20;71.50;;;;;;5062327;28;20044;-80
2022/06/12 13:41:19;;;;;;;0.10;0.10;;;24.10;71.20;;;;;;5078284;28;20040;-80
2022/06/12 13:43:45;;;;;;;0.00;0.00;;;24.10;74.80;;;;;;5061036;28;20486;-80
2022/06/12 13:46:29;;;;;;;1.35;0.43;;;24.00;71.40;;;;;;5077715;28;20136;-80
2022/06/12 13:48:57;;;;;;;0.00;0.00;;;24.00;72.50;;;;;;5061690;28;20155;-80
2022/06/12 13:51:42;;;;;;;0.00;0.00;;;24.10;74.60;;;;;;5061437;28;20392;-79